Terminal Aerodrome Forecast
Issued by NWS

Current Version | Previous Version | Text Only | Print | Product List | Glossary On
Versions: 1 2 3 4 5 6 7 8 9 10 11 12 13
000
FTUS41 KBTV 191120
TAFMSS
TAF
KMSS 191120Z 1912/2012 21011KT P6SM SKC
     FM191400 21014G22KT P6SM FEW100
     FM191700 23022G35KT P6SM FEW050 SCT200
     FM200100 25014G20KT P6SM FEW100
     FM200500 25009KT P6SM FEW200=

USA.gov is the U.S. government's official web portal to all federal, state and local government web resources and services.